Latest Weather Observations for Thargomindah

IDQ60801

Issued at 10:02 am EST Tuesday 31 March 2015 (issued every 30 minutes, with the page automatically refreshed every 10 minutes)

About weather observations | Map of weather stations | Latest weather observations for QLD | Other Formats
Station Details ID: 045025 Name: THARGOMINDAH AIRPORT Lat: -27.99 Lon: 143.81 Height: 130.89 m
Data from the previous 72 hours. | See also: Recent months at Thargomindah
Date/Time
EST
Temp
°C
App
Temp
°C
Dew
Point
Rel
Hum
%
Delta-T
°C
Wind Press
QNH
hPa
Press
MSL
hPa
Rain
since 9 am
mm
Dir
 
Spd
km/h
Gust
km/h
Spd
kts
Gust
kts
31/10:00am 28.3 26.3 11.4 35 9.7 E 13 17 7 9 1021.1 - 0.0
31/09:30am 27.2 25.1 11.2 36 9.1 ESE 13 17 7 9 1021.2 - 0.0
31/09:00am 26.6 24.6 10.3 36 9.1 E 11 13 6 7 1021.2 1020.4 0.0
31/08:30am 24.4 21.9 6.6 32 9.3 ESE 9 11 5 6 1021.0 - 0.0
31/08:00am 22.8 19.8 4.3 30 9.1 ESE 9 13 5 7 1020.5 - 0.0
31/07:30am 21.1 18.2 2.4 29 8.8 SE 7 11 4 6 1020.3 - 0.0
31/07:00am 19.9 17.0 2.7 32 8.1 ESE 7 9 4 5 1020.1 - 0.0
31/06:30am 18.9 16.5 1.9 32 7.8 SE 4 6 2 3 1019.6 - 0.0
31/06:00am 19.6 16.5 1.6 30 8.2 SSE 7 11 4 6 1019.4 1018.6 0.0
31/05:30am 19.9 16.6 2.3 31 8.2 SSE 9 11 5 6 1019.1 - 0.0
31/05:00am 20.1 17.0 1.5 29 8.5 S 7 9 4 5 1018.9 - 0.0
31/04:30am 20.6 17.6 2.0 29 8.6 ESE 7 9 4 5 1018.7 - 0.0
31/04:00am 21.1 17.7 1.9 28 8.9 SE 9 9 5 5 1018.6 - 0.0
31/03:30am 21.5 18.0 1.2 26 9.3 ESE 9 13 5 7 1018.5 - 0.0
31/03:00am 22.2 18.4 1.8 26 9.5 SE 11 13 6 7 1018.7 1017.6 0.0
31/02:30am 22.7 18.9 1.7 25 9.9 SSE 11 13 6 7 1019.0 - 0.0
31/02:00am 23.4 19.9 1.1 23 10.4 SE 9 11 5 6 1019.3 - 0.0
31/01:30am 24.2 20.3 1.2 22 10.8 SE 11 15 6 8 1019.3 - 0.0
31/01:00am 25.0 20.7 1.2 21 11.3 ESE 13 15 7 8 1019.8 - 0.0
31/12:30am 25.6 20.9 1.0 20 11.7 ESE 15 22 8 12 1019.9 - 0.0
31/12:00am 26.0 21.9 2.0 21 11.6 SE 13 19 7 10 1019.8 1018.9 0.0
 
Date/Time
EST
Temp
°C
App
Temp
°C
Dew
Point
Rel
Hum
%
Delta-T
°C
Wind Press
QNH
hPa
Press
MSL
hPa
Rain
since 9 am
mm
Dir
 
Spd
km/h
Gust
km/h
Spd
kts
Gust
kts
30/11:30pm 26.1 21.5 1.4 20 11.8 SE 15 19 8 10 1019.6 - 0.0
30/11:00pm 26.0 21.2 -0.1 18 12.2 SE 15 19 8 10 1019.8 - 0.0
30/10:30pm 26.2 21.5 -1.6 16 12.6 SSE 13 17 7 9 1019.9 - 0.0
30/10:00pm 26.4 21.8 -1.4 16 12.7 SE 13 15 7 8 1019.8 - 0.0
30/09:30pm 26.7 22.5 -1.2 16 12.8 SSE 11 15 6 8 1019.9 - 0.0
30/09:00pm 26.9 22.6 -1.9 15 13.0 SSE 11 13 6 7 1019.7 1018.9 0.0
30/08:30pm 27.8 23.6 -1.2 15 13.4 SSE 11 13 6 7 1019.5 - 0.0
30/08:00pm 28.5 24.2 -1.6 14 13.9 SE 11 11 6 6 1019.2 - 0.0
30/07:30pm 29.2 25.4 -1.0 14 14.1 SE 9 11 5 6 1018.8 - 0.0
30/07:00pm 30.0 26.1 -1.4 13 14.7 SSE 9 11 5 6 1018.4 - 0.0
30/06:30pm 31.6 27.4 -1.2 12 15.6 SSE 11 15 6 8 1018.1 - 0.0
30/06:00pm 32.4 28.6 -0.6 12 15.9 ESE 9 19 5 10 1017.7 1016.8 0.0
30/05:30pm 33.0 28.4 -1.4 11 16.5 S 13 17 7 9 1017.5 - 0.0
30/05:00pm 33.0 29.1 -1.4 11 16.5 ESE 9 20 5 11 1017.4 - 0.0
30/04:30pm 34.0 29.8 -0.6 11 16.9 SW 11 17 6 9 1017.4 - 0.0
30/04:00pm 33.5 28.9 -1.0 11 16.7 SE 13 20 7 11 1017.3 - 0.0
30/03:30pm 33.3 30.0 -1.1 11 16.6 WSW 6 13 3 7 1017.4 - 0.0
30/03:00pm 33.7 29.9 -0.8 11 16.7 SSE 9 19 5 10 1017.8 1016.8 0.0
30/02:30pm 33.0 28.7 -1.4 11 16.5 ESE 11 20 6 11 1018.1 - 0.0
30/02:00pm 32.7 28.0 -1.6 11 16.3 SE 13 20 7 11 1018.5 - 0.0
30/01:30pm 32.2 27.9 -2.0 11 16.1 ESE 11 20 6 11 1018.8 - 0.0
30/01:00pm 32.5 27.4 -1.7 11 16.2 ENE 15 22 8 12 1019.1 - 0.0
30/12:30pm 32.2 26.7 -2.0 11 16.1 E 17 26 9 14 1019.7 - 0.0
30/12:00pm 32.5 27.1 -1.7 11 16.2 ENE 17 30 9 16 1020.1 1019.1 0.0
30/11:30am 31.5 25.7 -1.3 12 15.6 E 19 30 10 16 1020.7 - 0.0
30/11:00am 30.4 24.7 -1.1 13 14.9 ESE 19 30 10 16 1021.2 - 0.0
30/10:30am 29.5 24.2 -0.8 14 14.3 ESE 17 26 9 14 1021.6 - 0.0
30/10:00am 28.5 22.6 -0.6 15 13.7 ESE 20 30 11 16 1021.9 - 0.0
30/09:30am 27.9 22.3 -0.2 16 13.2 ESE 19 28 10 15 1022.0 - 0.0
30/09:00am 27.1 21.5 0.0 17 12.7 ESE 19 26 10 14 1021.9 1021.0 0.0
30/08:30am 25.7 20.8 1.8 21 11.5 SE 17 24 9 13 1021.8 - 0.0
30/08:00am 24.0 19.9 2.2 24 10.4 SE 13 17 7 9 1021.4 - 0.0
30/07:30am 23.4 19.7 2.3 25 10.1 SE 11 17 6 9 1021.0 - 0.0
30/07:00am 22.9 18.7 1.8 25 9.9 SE 13 19 7 10 1020.9 - 0.0
30/06:30am 23.1 18.6 2.0 25 10.0 SE 15 19 8 10 1020.7 - 0.0
30/06:00am 23.5 18.6 1.8 24 10.2 SE 17 20 9 11 1020.7 1019.8 0.0
30/05:30am 23.8 18.8 1.4 23 10.5 SE 17 22 9 12 1020.3 - 0.0
30/05:00am 24.0 18.9 1.0 22 10.8 SSE 17 20 9 11 1019.8 - 0.0
30/04:30am 24.0 19.6 0.4 21 10.9 SSE 13 17 7 9 1019.3 - 0.0
30/04:00am 24.4 19.2 0.0 20 11.2 SE 17 24 9 13 1019.0 - 0.0
30/03:30am 24.6 19.9 0.8 21 11.1 SE 15 20 8 11 1019.1 - 0.0
30/03:00am 24.9 20.0 -0.3 19 11.6 SSE 15 26 8 14 1019.2 1018.4 0.0
30/02:30am 24.9 20.4 -0.3 19 11.6 SSE 13 15 7 8 1019.4 - 0.0
30/02:00am 25.1 21.4 -0.1 19 11.7 SE 9 13 5 7 1019.4 - 0.0
30/01:30am 25.3 21.0 -1.5 17 12.1 S 11 15 6 8 1020.1 - 0.0
30/01:00am 25.7 21.0 -2.0 16 12.4 SSE 13 17 7 9 1020.1 - 0.0
30/12:30am 25.5 21.0 -3.0 15 12.5 S 11 13 6 7 1020.3 - 0.0
30/12:00am 25.9 21.4 -3.6 14 12.8 ESE 11 19 6 10 1019.6 1018.8 0.0
 
Date/Time
EST
Temp
°C
App
Temp
°C
Dew
Point
Rel
Hum
%
Delta-T
°C
Wind Press
QNH
hPa
Press
MSL
hPa
Rain
since 9 am
mm
Dir
 
Spd
km/h
Gust
km/h
Spd
kts
Gust
kts
29/11:30pm 25.6 20.7 -3.8 14 12.7 S 13 15 7 8 1019.7 - 0.0
29/11:00pm 25.8 21.6 -3.7 14 12.8 ESE 9 11 5 6 1019.9 - 0.0
29/10:30pm 26.3 21.8 -3.3 14 13.0 SSE 11 13 6 7 1020.3 - 0.0
29/10:00pm 26.7 21.8 -3.0 14 13.2 SSE 13 17 7 9 1020.5 - 0.0
29/09:30pm 27.1 22.2 -3.7 13 13.5 S 13 15 7 8 1020.7 - 0.0
29/09:00pm 27.2 22.3 -3.6 13 13.5 S 13 15 7 8 1020.5 1019.6 0.0
29/08:30pm 27.1 22.5 -3.7 13 13.5 SSE 11 17 6 9 1019.6 - 0.0
29/08:00pm 27.4 22.9 -3.4 13 13.7 SSE 11 13 6 7 1019.5 - 0.0
29/07:30pm 27.7 22.8 -3.2 13 13.8 SE 13 17 7 9 1019.1 - 0.0
29/07:00pm 28.4 22.7 -3.7 12 14.3 SSE 17 24 9 13 1019.0 - 0.0
29/06:30pm 29.0 23.4 -3.2 12 14.5 SSE 17 24 9 13 1018.9 - 0.0
29/06:00pm 29.7 23.0 -3.9 11 15.0 SSE 22 32 12 17 1018.7 1017.7 0.0
29/05:30pm 30.4 24.2 -4.6 10 15.6 SSE 19 26 10 14 1018.7 - 0.0
29/05:00pm 30.9 25.1 -4.2 10 15.8 SSE 17 24 9 13 1018.7 - 0.0
29/04:30pm 31.2 25.5 -4.0 10 15.9 SSE 17 24 9 13 1018.6 - 0.0
29/04:00pm 31.3 25.8 -5.3 9 16.2 SSE 15 22 8 12 1018.5 - 0.0
29/03:30pm 31.8 26.5 -3.5 10 16.2 SSE 15 20 8 11 1018.7 - 0.0
29/03:00pm 31.6 27.0 -3.7 10 16.1 SSW 11 20 6 11 1018.8 1017.8 0.0
29/02:30pm 31.4 27.2 -3.8 10 16.0 S 9 19 5 10 1018.9 - 0.0
29/02:00pm 31.4 25.3 -3.8 10 16.0 SSE 19 28 10 15 1019.2 - 0.0
29/01:30pm 31.2 26.2 -4.0 10 15.9 SSE 13 19 7 10 1019.5 - 0.0
29/01:00pm 31.2 26.4 -2.7 11 15.7 SE 13 20 7 11 1020.0 - 0.0
29/12:30pm 30.6 25.0 -3.2 11 15.4 SE 17 24 9 13 1020.4 - 0.0
29/12:00pm 30.4 25.5 -3.3 11 15.3 SE 13 22 7 12 1020.9 1020.0 0.0
29/11:30am 30.2 25.2 -1.2 13 14.8 E 15 22 8 12 1021.3 - 0.0
29/11:00am 29.3 24.2 -1.9 13 14.4 E 15 22 8 12 1021.7 - 0.0
29/10:30am 28.7 23.3 -1.4 14 14.0 E 17 24 9 13 1021.9 - 0.0
29/10:00am 27.9 22.5 -1.1 15 13.5 E 17 22 9 12 1022.0 - 0.0
29/09:30am 26.3 20.5 -1.5 16 12.6 E 19 26 10 14 1022.0 - 0.0
29/09:00am 25.3 19.6 -0.7 18 11.9 E 19 28 10 15 1021.8 1021.0 0.0
29/08:30am 23.9 18.1 -0.4 20 11.1 E 20 26 11 14 1021.6 - 0.0
29/08:00am 21.7 17.2 -0.3 23 9.9 E 13 22 7 12 1021.2 - 0.0
29/07:30am 18.4 14.4 -2.0 25 8.6 ESE 9 13 5 7 1020.7 - 0.0
29/07:00am 16.3 12.7 -2.2 28 7.6 ESE 7 9 4 5 1020.5 - 0.0
29/06:30am 16.5 12.9 -2.0 28 7.6 ESE 7 9 4 5 1020.4 - 0.0
29/06:00am 16.7 12.7 -1.9 28 7.7 SE 9 11 5 6 1020.1 1019.2 0.0
29/05:30am 16.6 12.6 -2.5 27 7.8 SSE 9 11 5 6 1019.6 - 0.0
29/05:00am 16.5 12.5 -2.5 27 7.8 SSE 9 11 5 6 1019.2 - 0.0
29/04:30am 16.7 13.0 -2.9 26 8.0 ESE 7 11 4 6 1018.5 - 0.0
29/04:00am 17.0 13.0 -2.1 27 7.9 ESE 9 9 5 5 1018.4 - 0.0
29/03:30am 16.7 12.9 -3.9 24 8.2 E 7 7 4 4 1018.3 - 0.0
29/03:00am 18.1 13.7 -2.8 24 8.6 SSE 11 13 6 7 1018.5 1017.5 0.0
29/02:30am 18.4 13.5 -3.1 23 8.8 SSE 13 15 7 8 1018.4 - 0.0
29/02:00am 18.6 14.1 -3.5 22 9.0 SE 11 13 6 7 1018.4 - 0.0
29/01:30am 19.0 14.4 -3.8 21 9.3 SE 11 13 6 7 1018.7 - 0.0
29/01:00am 19.7 15.1 -3.9 20 9.7 SE 11 13 6 7 1018.9 - 0.0
29/12:30am 19.9 15.3 -3.7 20 9.7 SE 11 13 6 7 1019.2 - 0.0
29/12:00am 20.2 15.6 -4.1 19 9.9 SE 11 13 6 7 1019.4 1018.5 0.0
 
Date/Time
EST
Temp
°C
App
Temp
°C
Dew
Point
Rel
Hum
%
Delta-T
°C
Wind Press
QNH
hPa
Press
MSL
hPa
Rain
since 9 am
mm
Dir
 
Spd
km/h
Gust
km/h
Spd
kts
Gust
kts
28/11:30pm 20.7 16.0 -5.2 17 10.4 SE 11 15 6 8 1019.4 - 0.0
28/11:00pm 21.2 16.6 -4.0 18 10.5 SE 11 13 6 7 1019.5 - 0.0
28/10:30pm 21.9 17.2 -5.0 16 11.0 SE 11 11 6 6 1019.8 - 0.0
28/10:00pm 21.8 17.6 -4.3 17 10.8 ESE 9 11 5 6 1020.0 - 0.0
28/09:30pm 22.9 18.6 -5.1 15 11.6 SE 9 11 5 6 1020.0 - 0.0
28/09:00pm 23.2 19.0 -4.0 16 11.5 SE 9 11 5 6 1019.7 1018.8 0.0
28/08:30pm 23.8 19.5 -4.4 15 11.9 SE 9 11 5 6 1019.6 - 0.0
28/08:00pm 24.1 20.2 -5.0 14 12.2 ESE 7 9 4 5 1019.5 - 0.0
28/07:30pm 26.0 21.7 -4.5 13 13.1 SE 9 11 5 6 1019.1 - 0.0
28/07:00pm 26.7 22.5 -4.0 13 13.4 SE 9 11 5 6 1018.7 - 0.0
28/06:30pm 28.0 24.0 -5.2 11 14.3 ESE 7 9 4 5 1018.4 - 0.0
28/06:00pm 29.0 24.4 -4.4 11 14.7 E 11 20 6 11 1018.2 1017.3 0.0
28/05:30pm 29.8 25.2 -3.8 11 15.1 SE 11 17 6 9 1018.0 - 0.0
28/05:00pm 30.2 25.1 -4.8 10 15.5 ESE 13 22 7 12 1017.9 - 0.0
28/04:30pm 30.8 25.8 -4.3 10 15.7 E 13 19 7 10 1017.8 - 0.0
28/04:00pm 29.8 25.6 -3.8 11 15.1 ESE 9 15 5 8 1018.2 - 0.0
28/03:30pm 29.7 24.4 -3.9 11 15.0 SE 15 20 8 11 1018.6 - 0.0
28/03:00pm 29.5 24.5 -4.0 11 14.9 E 13 22 7 12 1018.8 1017.8 0.0
28/02:30pm 29.0 23.6 -4.4 11 14.7 ESE 15 22 8 12 1019.4 - 0.0
28/02:00pm 29.4 23.4 -2.9 12 14.7 SE 19 24 10 13 1019.5 - 0.0
28/01:30pm 28.4 23.5 -3.7 12 14.3 E 13 20 7 11 1020.0 - 0.0
28/01:00pm 27.8 22.4 -4.2 12 14.0 ESE 15 28 8 15 1020.5 - 0.0
28/12:30pm 27.3 22.4 -3.5 13 13.6 ESE 13 28 7 15 1021.0 - 0.0
28/12:00pm 27.3 22.1 -2.5 14 13.4 E 15 22 8 12 1021.5 1020.6 0.0
28/11:30am 26.0 20.7 -3.5 14 12.9 ESE 15 28 8 15 1022.1 - 0.0
28/11:00am 25.9 19.9 -2.7 15 12.7 E 19 28 10 15 1022.3 - 0.0
28/10:30am 24.7 18.7 -1.2 18 11.7 E 20 28 11 15 1022.8 - 0.0

Other Formats:

Comma delimited format used in spreadsheet applications
http://www.bom.gov.au/fwo/IDQ60801/IDQ60801.95492.axf

JavaScript Object Notation format (JSON) in row-major order
http://www.bom.gov.au/fwo/IDQ60801/IDQ60801.95492.json